Magne Viking — OURK2 — position and weather

sailwx.info

Track history (hours):
 
Tides and Currents Weather Stations Pressure Air Temp Water Temp Dewpoint Dewpoint Depression Visibility Wind Speed Wind Dir Waves Ship Positions

Magne Viking

Last reported at 2015-May-22 23:32 UTC. Time now 2015-May-24 07:06 UTC.
Position N 58°50' W 002°03'.

Length 85 m; draft 6.3 m.

Type: Tug. MMSI: 219375000.

Date/timePositionNaut miles runAvg speedWind from/ knotsBaromVisibWave heightAir tempDewpointWater temp
2015-May-22 23:32N 58°50' W 002°03'5410.3
2015-May-22 18:18N 57°56' W 001°48'810.5
2015-May-22 17:34N 57°49' W 001°46'10 9.7
2015-May-22 16:33N 57°39' W 001°43'9 8.7
2015-May-22 15:33N 57°31' W 001°40'8 8.1
2015-May-22 14:33N 57°23' W 001°44'10 9.3
2015-May-22 13:25N 57°14' W 001°55'8 8.9
2015-May-22 12:33N 57°09' W 002°05'0 0.1
2015-May-22 11:13N 57°09' W 002°05'0 0.0
2015-May-22 10:32N 57°09' W 002°05'0 0.0
2015-May-22 09:32N 57°09' W 002°05'0 0.0
2015-May-22 08:27N 57°09' W 002°05'0 0.0
2015-May-22 07:28N 57°09' W 002°05'0 0.0
2015-May-22 06:29N 57°09' W 002°05'0 0.0
2015-May-22 05:17N 57°09' W 002°05'0 0.0
2015-May-22 04:30N 57°09' W 002°05'0 0.0
2015-May-22 03:19N 57°09' W 002°05'0 0.0
2015-May-22 02:33N 57°09' W 002°05'2 2.2
2015-May-22 01:32N 57°10' W 002°01'1 1.1
2015-May-22 00:28N 57°11' W 002°02'0 0.0
2015-May-21 23:04N 57°11' W 002°02'0 0.0
2015-May-21 22:05N 57°11' W 002°02'0 0.0
2015-May-21 19:13N 57°11' W 002°02'0 0.0
2015-May-21 18:31N 57°11' W 002°02'0 0.0
2015-May-21 17:32N 57°11' W 002°02'0 0.0
2015-May-21 16:33N 57°11' W 002°02'0 0.0
2015-May-21 14:22N 57°11' W 002°02'0 0.0
2015-May-21 13:23N 57°11' W 002°02'0 0.0
2015-May-21 12:17N 57°11' W 002°02'3 3.4
2015-May-21 11:33N 57°08' W 002°04'3 2.0
2015-May-21 10:19N 57°11' W 002°02'0 0.0
2015-May-21 09:14N 57°11' W 002°02'0 0.0
2015-May-21 08:14N 57°11' W 002°02'0 0.0
2015-May-21 07:27N 57°11' W 002°02'0 0.0
2015-May-21 06:33N 57°11' W 002°02'0 0.0
2015-May-21 05:28N 57°11' W 002°02'0 0.0
2015-May-21 04:14N 57°11' W 002°02'0 0.0
2015-May-21 03:23N 57°11' W 002°02'0 0.0
2015-May-21 02:29N 57°11' W 002°02'0 0.0
2015-May-21 01:22N 57°11' W 002°02'0 0.0
2015-May-21 00:30N 57°11' W 002°02'0 0.0
2015-May-20 23:33N 57°11' W 002°02'0 0.0
2015-May-20 22:33N 57°11' W 002°02'0 0.0
2015-May-20 21:30N 57°11' W 002°02'335.5
2015-May-20 21:26N 57°08' W 002°04'3 2.8
2015-May-20 20:32N 57°11' W 002°02'5 4.6
2015-May-20 19:33N 57°06' W 001°58'  
2015-May-13 22:33N 57°11' W 001°42'1211.5
2015-May-13 21:32N 57°20' W 001°27'1111.4
2015-May-13 20:33N 57°28' W 001°13'1211.3
2015-May-13 19:31N 57°38' W 001°01'  
Track history (hours):
 
Tides and Currents Weather Stations Pressure Air Temp Water Temp Dewpoint Dewpoint Depression Visibility Wind Speed Wind Dir Waves Ship Positions

Magne Viking

Last reported at 2015-May-22 23:32 UTC. Time now 2015-May-24 07:06 UTC.
Position N 58°50' W 002°03'.

Length 85 m; draft 6.3 m.

Type: Tug. MMSI: 219375000.

Date/timePositionNaut miles runAvg speedWind from/ knotsBaromVisibWave heightAir tempDewpointWater temp
2015-May-22 23:32N 58°50' W 002°03'5410.3
2015-May-22 18:18N 57°56' W 001°48'810.5
2015-May-22 17:34N 57°49' W 001°46'10 9.7
2015-May-22 16:33N 57°39' W 001°43'9 8.7
2015-May-22 15:33N 57°31' W 001°40'8 8.1
2015-May-22 14:33N 57°23' W 001°44'10 9.3
2015-May-22 13:25N 57°14' W 001°55'8 8.9
2015-May-22 12:33N 57°09' W 002°05'0 0.1
2015-May-22 11:13N 57°09' W 002°05'0 0.0
2015-May-22 10:32N 57°09' W 002°05'0 0.0
2015-May-22 09:32N 57°09' W 002°05'0 0.0
2015-May-22 08:27N 57°09' W 002°05'0 0.0
2015-May-22 07:28N 57°09' W 002°05'0 0.0
2015-May-22 06:29N 57°09' W 002°05'0 0.0
2015-May-22 05:17N 57°09' W 002°05'0 0.0
2015-May-22 04:30N 57°09' W 002°05'0 0.0
2015-May-22 03:19N 57°09' W 002°05'0 0.0
2015-May-22 02:33N 57°09' W 002°05'2 2.2
2015-May-22 01:32N 57°10' W 002°01'1 1.1
2015-May-22 00:28N 57°11' W 002°02'0 0.0
2015-May-21 23:04N 57°11' W 002°02'0 0.0
2015-May-21 22:05N 57°11' W 002°02'0 0.0
2015-May-21 19:13N 57°11' W 002°02'0 0.0
2015-May-21 18:31N 57°11' W 002°02'0 0.0
2015-May-21 17:32N 57°11' W 002°02'0 0.0
2015-May-21 16:33N 57°11' W 002°02'0 0.0
2015-May-21 14:22N 57°11' W 002°02'0 0.0
2015-May-21 13:23N 57°11' W 002°02'0 0.0
2015-May-21 12:17N 57°11' W 002°02'3 3.4
2015-May-21 11:33N 57°08' W 002°04'3 2.0
2015-May-21 10:19N 57°11' W 002°02'0 0.0
2015-May-21 09:14N 57°11' W 002°02'0 0.0
2015-May-21 08:14N 57°11' W 002°02'0 0.0
2015-May-21 07:27N 57°11' W 002°02'0 0.0
2015-May-21 06:33N 57°11' W 002°02'0 0.0
2015-May-21 05:28N 57°11' W 002°02'0 0.0
2015-May-21 04:14N 57°11' W 002°02'0 0.0
2015-May-21 03:23N 57°11' W 002°02'0 0.0
2015-May-21 02:29N 57°11' W 002°02'0 0.0
2015-May-21 01:22N 57°11' W 002°02'0 0.0
2015-May-21 00:30N 57°11' W 002°02'0 0.0
2015-May-20 23:33N 57°11' W 002°02'0 0.0
2015-May-20 22:33N 57°11' W 002°02'0 0.0
2015-May-20 21:30N 57°11' W 002°02'335.5
2015-May-20 21:26N 57°08' W 002°04'3 2.8
2015-May-20 20:32N 57°11' W 002°02'5 4.6
2015-May-20 19:33N 57°06' W 001°58'  
2015-May-13 22:33N 57°11' W 001°42'1211.5
2015-May-13 21:32N 57°20' W 001°27'1111.4
2015-May-13 20:33N 57°28' W 001°13'1211.3
2015-May-13 19:31N 57°38' W 001°01'  

Dump ship's entire track history